Time;durP1;ratioP1;P1;durP2;ratioP2;P2;SDS_P1;SDS_P2;PMS_P1;PMS_P2;Temp;Humidity;BMP_temperature;BMP_pressure;BME280_temperature;BME280_humidity;BME280_pressure;Samples;Min_cycle;Max_cycle;Signal;HPM_P1;HPM_P2
2022/03/25 00:00:57;;;;;;;13.50;9.57;;;11.40;46.60;;;-142.21;60.34;112049.66;4954478;28;20488;-81
2022/03/25 00:03:24;;;;;;;12.40;9.73;;;11.40;47.00;;;-142.21;59.78;112049.66;4955302;28;20528;-79
2022/03/25 00:05:51;;;;;;;16.20;9.93;;;11.40;46.80;;;-142.21;59.11;112049.66;4954672;28;20479;-80
2022/03/25 00:08:18;;;;;;;15.80;10.70;;;11.30;46.80;;;-142.21;59.88;112049.66;4955392;28;20460;-80
2022/03/25 00:10:46;;;;;;;14.10;10.33;;;11.10;47.90;;;-142.21;58.06;112049.66;4955027;28;20453;-80
2022/03/25 00:13:14;;;;;;;13.50;9.83;;;11.10;47.70;;;-142.21;57.95;112049.66;4954963;28;20456;-80
2022/03/25 00:15:42;;;;;;;14.37;9.53;;;11.10;47.30;;;-142.21;57.59;112049.66;4948582;28;20483;-79
2022/03/25 00:18:09;;;;;;;15.27;10.20;;;11.00;47.10;;;-142.21;58.49;112049.66;4935778;29;20457;-80
2022/03/25 00:20:36;;;;;;;15.77;9.53;;;10.90;47.60;;;-142.21;59.13;112049.66;4935715;29;20552;-80
2022/03/25 00:23:03;;;;;;;15.57;10.70;;;10.90;47.90;;;-142.21;58.74;112049.66;4935482;29;20493;-81
2022/03/25 00:25:31;;;;;;;18.00;10.50;;;10.80;47.80;;;-142.21;59.12;112049.66;4940866;29;20553;-80
2022/03/25 00:27:58;;;;;;;19.90;10.63;;;10.70;48.20;;;-142.21;58.55;112049.66;4955006;28;20528;-79
2022/03/25 00:30:28;;;;;;;15.83;10.67;;;10.60;48.10;;;-142.21;58.54;112049.66;4954416;29;20536;-78
2022/03/25 00:32:55;;;;;;;13.70;9.90;;;10.60;48.60;;;-142.21;58.42;112049.66;4954530;28;20535;-78
2022/03/25 00:35:23;;;;;;;13.27;9.83;;;10.60;48.30;;;-142.21;58.44;112049.66;4933195;29;20450;-78
2022/03/25 00:37:50;;;;;;;18.70;10.63;;;10.60;48.40;;;-142.21;59.38;112049.66;4935607;29;20473;-78
2022/03/25 00:40:17;;;;;;;14.87;10.93;;;10.50;48.90;;;-142.21;59.32;112049.66;4934745;29;20513;-79
2022/03/25 00:42:45;;;;;;;15.30;10.30;;;10.40;48.80;;;-142.21;59.53;112049.66;4945739;29;20469;-79
2022/03/25 00:45:13;;;;;;;17.67;10.07;;;10.40;49.00;;;-142.21;59.78;112049.66;4954218;29;20539;-79
2022/03/25 00:47:42;;;;;;;14.47;10.20;;;10.40;49.00;;;-142.21;60.57;112049.66;4954165;28;20535;-78
2022/03/25 00:50:10;;;;;;;14.57;10.27;;;10.40;48.60;;;-142.21;61.22;112049.66;4935948;29;20453;-78
2022/03/25 00:52:38;;;;;;;15.13;10.33;;;10.50;49.00;;;-142.21;60.61;112049.66;4938423;29;20503;-79
2022/03/25 00:55:07;;;;;;;16.30;10.23;;;10.40;48.80;;;-142.21;63.36;112049.66;4940681;29;20441;-78
2022/03/25 00:57:34;;;;;;;16.07;9.97;;;10.40;49.70;;;-142.21;64.14;112049.66;4957984;28;20942;-80
2022/03/25 01:00:01;;;;;;;15.07;10.27;;;10.30;49.50;;;-142.21;66.16;112049.66;4958053;28;20576;-79
2022/03/25 01:02:29;;;;;;;15.23;9.97;;;10.20;49.30;;;-142.21;65.16;112049.66;4957630;28;20548;-79
2022/03/25 01:04:57;;;;;;;15.73;10.00;;;10.30;49.00;;;-142.21;65.79;112049.66;4958413;29;20516;-79
2022/03/25 01:07:24;;;;;;;16.17;11.13;;;10.30;49.20;;;-142.21;67.17;112049.66;4939050;28;20496;-79
2022/03/25 01:09:52;;;;;;;14.73;10.10;;;10.30;49.90;;;-142.21;65.26;112049.66;4938269;29;20465;-79
2022/03/25 01:12:21;;;;;;;19.03;11.10;;;10.20;49.40;;;-142.21;64.31;112049.66;4951346;29;20544;-79
2022/03/25 01:14:48;;;;;;;17.63;12.00;;;10.20;49.40;;;-142.21;63.62;112049.66;4957526;28;20456;-79
2022/03/25 01:17:16;;;;;;;16.53;12.03;;;10.20;49.20;;;-142.21;63.06;112049.66;4956738;28;20527;-79
2022/03/25 01:19:44;;;;;;;16.50;11.27;;;10.20;48.70;;;-142.21;63.07;112049.66;4957168;28;20492;-79
2022/03/25 01:22:13;;;;;;;20.93;12.03;;;10.10;49.00;;;-142.21;63.60;112049.66;4957963;28;20560;-79
2022/03/25 01:24:41;;;;;;;17.37;11.57;;;10.10;48.80;;;-142.21;64.46;112049.66;4957164;28;20867;-79
2022/03/25 01:27:09;;;;;;;17.17;11.33;;;10.10;49.10;;;-142.21;63.60;112049.66;4957109;28;20949;-79
2022/03/25 01:29:37;;;;;;;18.63;12.23;;;10.10;49.10;;;-142.21;63.52;112049.66;4957517;28;20930;-77
2022/03/25 01:32:06;;;;;;;17.97;12.17;;;10.10;49.10;;;-142.21;63.69;112049.66;4956899;28;20528;-80
2022/03/25 01:34:34;;;;;;;17.37;11.33;;;10.10;49.00;;;-142.21;63.99;112049.66;4957788;28;20858;-78
2022/03/25 01:37:03;;;;;;;17.23;12.37;;;10.00;49.30;;;-142.21;63.25;112049.66;4956614;28;20826;-78
2022/03/25 01:39:31;;;;;;;18.70;12.70;;;9.90;50.20;;;-142.21;63.15;112049.66;4957154;28;20511;-79
2022/03/25 01:41:59;;;;;;;17.67;11.70;;;9.90;50.10;;;-142.21;62.44;112049.66;4956759;28;20457;-79
2022/03/25 01:44:29;;;;;;;16.83;11.27;;;9.80;50.00;;;-142.21;62.29;112049.66;4957097;28;20471;-78
2022/03/25 01:46:59;;;;;;;19.43;12.43;;;9.80;50.00;;;-142.21;62.55;112049.66;4944840;29;20438;-78
2022/03/25 01:49:27;;;;;;;17.67;11.70;;;9.90;50.20;;;-142.21;63.09;112049.66;4957083;29;20547;-78
2022/03/25 01:51:59;;;;;;;15.70;11.80;;;9.80;49.90;;;-142.21;65.46;112049.66;4956855;28;20453;-79
2022/03/25 01:54:29;;;;;;;18.57;11.80;;;9.90;50.10;;;-142.21;65.74;112049.66;4957356;29;20902;-80
2022/03/25 01:57:01;;;;;;;16.60;11.40;;;9.90;50.30;;;-142.21;64.92;112049.66;4956506;29;20448;-80
2022/03/25 01:59:29;;;;;;;17.20;11.53;;;9.80;50.10;;;-142.21;64.17;112049.66;4956686;29;20487;-80
2022/03/25 02:01:56;;;;;;;18.73;12.47;;;9.80;50.00;;;-142.21;64.50;112049.66;4957446;28;20540;-80
2022/03/25 02:04:25;;;;;;;18.00;12.37;;;9.70;50.40;;;-142.21;64.51;112049.66;4957617;28;20468;-80
2022/03/25 02:06:54;;;;;;;18.83;11.83;;;9.70;50.50;;;-142.21;64.04;112049.66;4956745;28;20453;-79
2022/03/25 02:09:22;;;;;;;18.63;12.40;;;9.60;50.30;;;-142.21;64.22;112049.66;4956739;28;20976;-79
2022/03/25 02:11:49;;;;;;;16.70;11.10;;;9.60;50.60;;;-142.21;64.09;112049.66;4957211;28;20452;-80
2022/03/25 02:14:18;;;;;;;17.90;12.10;;;9.50;50.70;;;-142.21;64.60;112049.66;4957291;28;21016;-80
2022/03/25 02:16:49;;;;;;;17.60;12.20;;;9.40;51.00;;;-142.21;63.00;112049.66;4956771;28;20457;-81
2022/03/25 02:19:19;;;;;;;16.67;12.40;;;9.30;51.30;;;-142.21;63.93;112049.66;4957830;29;20984;-82
2022/03/25 02:21:49;;;;;;;20.47;11.60;;;9.30;50.80;;;-142.21;63.71;112049.66;4957164;28;20456;-81
2022/03/25 02:24:17;;;;;;;18.07;12.07;;;9.30;50.60;;;-142.21;64.71;112049.66;4956966;28;20480;-81
2022/03/25 02:26:46;;;;;;;17.23;11.23;;;9.40;50.90;;;-142.21;64.92;112049.66;4945404;28;20485;-81
2022/03/25 02:29:16;;;;;;;19.00;12.40;;;9.30;50.90;;;-142.21;65.27;112049.66;4938137;29;20473;-81
2022/03/25 02:31:44;;;;;;;18.37;11.47;;;9.30;51.30;;;-142.21;64.95;112049.66;4953221;29;20457;-80
2022/03/25 02:34:12;;;;;;;17.23;11.40;;;9.30;51.40;;;-142.21;66.30;112049.66;4956842;28;20553;-80
2022/03/25 02:36:40;;;;;;;16.83;11.30;;;9.20;51.40;;;-142.21;66.33;112049.66;4955852;28;20478;-81
2022/03/25 02:39:13;;;;;;;18.07;11.03;;;9.30;51.10;;;-142.21;66.28;112049.66;4956466;28;21060;-81
2022/03/25 02:41:40;;;;;;;16.80;11.20;;;9.20;51.20;;;-142.21;66.61;112049.66;4945854;28;20460;-80
2022/03/25 02:44:10;;;;;;;18.00;11.30;;;9.10;51.80;;;-142.21;66.71;112049.66;4956912;28;20452;-80
2022/03/25 02:46:37;;;;;;;17.60;10.97;;;9.10;52.00;;;-142.21;66.36;112049.66;4956561;28;20463;-81
2022/03/25 02:49:06;;;;;;;15.60;11.40;;;9.10;51.80;;;-142.21;66.40;112049.66;4956288;28;20464;-81
2022/03/25 02:51:33;;;;;;;16.73;11.47;;;9.00;51.50;;;-142.21;68.43;112049.66;4956623;29;20971;-81
2022/03/25 02:54:03;;;;;;;16.77;11.77;;;9.10;51.50;;;-142.21;68.79;112049.66;4956393;28;20544;-81
2022/03/25 02:56:32;;;;;;;15.93;11.33;;;9.10;51.60;;;-142.21;68.87;112049.66;4948401;28;20947;-81
2022/03/25 02:58:59;;;;;;;16.30;11.90;;;9.00;51.40;;;-142.21;68.80;112049.66;4955474;29;20453;-80
2022/03/25 03:01:27;;;;;;;19.47;12.73;;;9.00;51.50;;;-142.21;68.05;112049.66;4956310;28;20540;-80
2022/03/25 03:03:54;;;;;;;17.83;12.00;;;8.90;51.90;;;-142.21;68.33;112049.66;4956607;28;20456;-81
2022/03/25 03:06:21;;;;;;;20.80;12.03;;;8.90;51.70;;;-142.21;68.50;112049.66;4955330;28;20536;-79
2022/03/25 03:08:48;;;;;;;16.73;10.63;;;8.90;51.70;;;-142.21;69.27;112049.66;4955831;28;20460;-78
2022/03/25 03:11:16;;;;;;;16.93;11.53;;;8.90;51.70;;;-142.21;69.06;112049.66;4955372;28;20441;-79
2022/03/25 03:13:45;;;;;;;18.23;11.90;;;8.90;51.70;;;-142.21;68.80;112049.66;4954692;28;20496;-79
2022/03/25 03:16:12;;;;;;;18.83;11.10;;;8.90;52.00;;;-142.21;68.67;112049.66;4954375;28;20555;-79
2022/03/25 03:18:40;;;;;;;20.80;12.37;;;8.80;52.10;;;-142.21;68.46;112049.66;4954762;29;20508;-79
2022/03/25 03:21:07;;;;;;;16.60;11.40;;;8.70;51.80;;;-142.21;68.56;112049.66;4954985;28;20540;-78
2022/03/25 03:23:34;;;;;;;25.43;12.40;;;8.70;52.00;;;-142.21;68.62;112049.66;4954784;28;20518;-79
2022/03/25 03:26:02;;;;;;;17.63;11.80;;;8.70;51.90;;;-142.21;67.87;112049.66;4952169;28;20450;-79
2022/03/25 03:28:29;;;;;;;15.53;11.13;;;8.70;52.00;;;-142.21;67.50;112049.66;4943389;29;20457;-78
2022/03/25 03:30:58;;;;;;;21.33;11.07;;;8.60;52.00;;;-142.21;67.57;112049.66;4955681;28;20457;-80
2022/03/25 03:33:25;;;;;;;22.77;11.60;;;8.60;52.30;;;-142.21;67.22;112049.66;4954690;28;20489;-79
2022/03/25 03:35:53;;;;;;;18.67;11.77;;;8.60;52.30;;;-142.21;68.32;112049.66;4955138;28;20453;-78
2022/03/25 03:38:20;;;;;;;17.20;11.07;;;8.60;52.20;;;-142.21;68.52;112049.66;4955358;28;20998;-80
2022/03/25 03:40:47;;;;;;;19.10;12.53;;;8.60;52.30;;;-142.21;67.86;112049.66;4954944;28;20517;-78
2022/03/25 03:43:15;;;;;;;18.07;12.33;;;8.50;52.60;;;-142.21;68.94;112049.66;4955554;28;20467;-78
2022/03/25 03:45:42;;;;;;;17.90;12.33;;;8.40;52.80;;;-142.21;68.78;112049.66;4935764;29;20454;-80
2022/03/25 03:48:11;;;;;;;18.20;11.90;;;8.40;52.30;;;-142.21;68.50;112049.66;4936096;29;21475;-79
2022/03/25 03:50:41;;;;;;;17.70;10.83;;;8.50;52.40;;;-142.21;68.01;112049.66;4938413;29;20460;-79
2022/03/25 03:53:08;;;;;;;16.37;11.07;;;8.50;52.30;;;-142.21;69.05;112049.66;4955266;28;20484;-79
2022/03/25 03:55:35;;;;;;;18.23;11.73;;;8.40;52.20;;;-142.21;68.13;112049.66;4955230;28;20493;-80
2022/03/25 03:58:02;;;;;;;15.13;10.73;;;8.50;52.20;;;-142.21;67.91;112049.66;4954514;28;20453;-80
2022/03/25 04:00:31;;;;;;;17.10;11.63;;;8.40;52.20;;;-142.21;68.71;112049.66;4955380;29;20484;-80
2022/03/25 04:02:59;;;;;;;18.40;10.90;;;8.30;53.00;;;-142.21;69.35;112049.66;4954513;28;20808;-78
2022/03/25 04:05:27;;;;;;;17.63;11.63;;;8.20;53.10;;;-142.21;69.55;112049.66;4955073;28;20448;-80
2022/03/25 04:07:54;;;;;;;16.30;11.63;;;8.20;52.90;;;-142.21;69.06;112049.66;4954439;28;20536;-79
2022/03/25 04:10:22;;;;;;;17.93;11.83;;;8.20;52.90;;;-142.21;69.36;112049.66;4955052;28;20884;-80
2022/03/25 04:12:49;;;;;;;17.85;11.80;;;8.10;53.60;;;-142.21;69.49;112049.66;4954853;28;20926;-79
2022/03/25 04:15:16;;;;;;;18.60;11.03;;;8.00;53.60;;;-142.21;70.37;112049.66;4938254;29;20300;-80
2022/03/25 04:17:45;;;;;;;14.33;10.33;;;8.10;53.50;;;-142.21;72.02;112049.66;4954464;28;20464;-80
2022/03/25 04:20:16;;;;;;;17.13;11.73;;;8.00;54.40;;;-142.21;72.77;112049.66;4954220;28;21075;-80
2022/03/25 04:22:45;;;;;;;17.33;11.97;;;8.00;55.10;;;-142.21;72.58;112049.66;4954986;28;20522;-80
2022/03/25 04:25:14;;;;;;;19.73;11.40;;;7.90;55.30;;;-142.21;72.05;112049.66;4955147;28;20572;-81
2022/03/25 04:27:50;;;;;;;18.53;11.33;;;7.90;54.70;;;-142.21;71.22;112049.66;4958622;28;20467;-80
2022/03/25 04:30:22;;;;;;;17.63;12.13;;;7.90;54.30;;;-142.21;74.13;112049.66;4957783;28;20544;-79
2022/03/25 04:32:50;;;;;;;18.70;12.30;;;7.90;53.90;;;-142.21;74.63;112049.66;4958732;28;20504;-79
2022/03/25 04:35:18;;;;;;;20.67;11.63;;;8.00;53.80;;;-142.21;73.26;112049.66;4958057;29;20453;-80
2022/03/25 04:37:47;;;;;;;17.60;10.97;;;8.00;54.00;;;-142.21;73.55;112049.66;4957957;28;20476;-80
2022/03/25 04:40:17;;;;;;;19.13;12.18;;;8.00;53.70;;;-142.21;73.44;112049.66;4957868;28;20574;-79
2022/03/25 04:42:45;;;;;;;22.47;11.20;;;7.90;54.30;;;-142.21;72.21;112049.66;4958923;29;20205;-80
2022/03/25 04:45:13;;;;;;;21.27;12.55;;;7.90;54.00;;;-142.21;73.00;112049.66;4958331;28;20469;-80
2022/03/25 04:47:41;;;;;;;18.13;11.40;;;8.00;53.50;;;-142.21;75.07;112049.66;4957793;28;20209;-78
2022/03/25 04:50:09;;;;;;;17.90;11.50;;;8.00;53.70;;;-142.21;76.49;112049.66;4958298;28;20528;-78
2022/03/25 04:52:37;;;;;;;17.87;11.67;;;8.00;54.00;;;-142.21;78.43;112049.66;4957194;28;20987;-78
2022/03/25 04:55:07;;;;;;;17.87;11.47;;;8.10;53.90;;;-142.21;74.93;112049.66;4938978;29;20501;-78
2022/03/25 04:57:34;;;;;;;17.50;11.07;;;8.00;53.40;;;-142.21;74.96;112049.66;4938762;29;20536;-78
2022/03/25 05:00:02;;;;;;;18.07;11.63;;;8.00;53.40;;;-142.21;73.73;112049.66;4938508;29;20225;-77
2022/03/25 05:02:29;;;;;;;17.27;11.33;;;7.90;53.60;;;-142.21;72.96;112049.66;4949250;29;20467;-78
2022/03/25 05:04:58;;;;;;;16.77;11.67;;;7.90;53.40;;;-142.21;73.72;112049.66;4957992;28;20955;-78
2022/03/25 05:07:25;;;;;;;17.20;10.57;;;7.90;53.00;;;-142.21;74.52;112049.66;4958254;28;20476;-79
2022/03/25 05:09:52;;;;;;;15.60;11.03;;;7.90;53.40;;;-142.21;74.53;112049.66;4957826;28;20515;-80
2022/03/25 05:12:21;;;;;;;17.27;11.47;;;7.90;53.40;;;-142.21;74.86;112049.66;4958468;28;20457;-79
2022/03/25 05:14:48;;;;;;;18.20;12.13;;;8.00;53.10;;;-142.21;76.23;112049.66;4957067;28;20476;-80
2022/03/25 05:17:16;;;;;;;18.30;11.03;;;8.00;53.30;;;-142.21;76.39;112049.66;4957913;28;20449;-80
2022/03/25 05:19:43;;;;;;;17.23;11.47;;;8.00;52.90;;;-142.21;75.84;112049.66;4957668;28;20464;-81
2022/03/25 05:22:10;;;;;;;16.77;11.03;;;7.90;53.60;;;-142.21;76.66;112049.66;4958338;28;20469;-79
2022/03/25 05:24:38;;;;;;;17.73;11.33;;;7.90;53.80;;;-142.21;76.23;112049.66;4943786;28;20565;-79
2022/03/25 05:27:06;;;;;;;18.07;12.07;;;7.90;53.80;;;-142.21;76.51;112049.66;4943111;29;20457;-79
2022/03/25 05:29:35;;;;;;;18.53;12.10;;;7.80;53.60;;;-142.21;76.19;112049.66;4939825;29;20456;-79
2022/03/25 05:32:02;;;;;;;18.03;11.30;;;7.70;53.60;;;-142.21;75.66;112049.66;4951702;29;20535;-79
2022/03/25 05:34:30;;;;;;;22.77;12.40;;;7.70;53.60;;;-142.21;76.16;112049.66;4957688;28;20472;-76
2022/03/25 05:36:57;;;;;;;15.90;11.23;;;7.70;53.20;;;-142.21;77.44;112049.66;4955443;28;20942;-79
2022/03/25 05:39:25;;;;;;;19.70;12.77;;;7.80;53.70;;;-142.21;76.36;112049.66;4957349;28;20467;-79
2022/03/25 05:41:52;;;;;;;17.43;11.77;;;7.70;53.40;;;-142.21;76.94;112049.66;4957234;28;20472;-80
2022/03/25 05:44:19;;;;;;;18.87;11.80;;;7.70;54.00;;;-142.21;76.74;112049.66;4957108;28;20480;-79
2022/03/25 05:46:48;;;;;;;19.93;12.20;;;7.60;53.90;;;-142.21;77.23;112049.66;4956948;28;20456;-79
2022/03/25 05:49:15;;;;;;;16.03;11.53;;;7.50;54.70;;;-142.21;77.97;112049.66;4956539;28;20488;-79
2022/03/25 05:51:43;;;;;;;18.38;11.65;;;7.50;55.00;;;-142.21;79.13;112049.66;4957794;28;20496;-79
2022/03/25 05:54:11;;;;;;;16.63;10.70;;;7.60;54.90;;;-142.21;80.41;112049.66;4957383;28;20212;-78
2022/03/25 05:57:08;;;;;;;17.17;11.00;;;7.70;54.40;;;-142.21;79.17;112049.66;4956272;28;20441;-78
2022/03/25 05:59:36;;;;;;;19.73;12.30;;;7.90;54.90;;;-142.21;79.79;112049.66;4945323;29;20477;-78
2022/03/25 06:02:05;;;;;;;18.27;11.82;;;7.90;54.30;;;-142.21;81.68;112049.66;4956921;28;20567;-77
2022/03/25 06:04:32;;;;;;;19.17;11.90;;;8.00;54.40;;;-142.21;81.46;112049.66;4956750;28;20233;-78
2022/03/25 06:06:59;;;;;;;17.17;11.33;;;8.10;54.80;;;-142.21;79.78;112049.66;4956573;28;20472;-77
2022/03/25 06:09:26;;;;;;;18.00;11.87;;;8.20;54.60;;;-142.21;80.33;112049.66;4956390;29;20536;-78
2022/03/25 06:11:53;;;;;;;16.43;11.83;;;8.30;54.00;;;-142.21;80.59;112049.66;4956653;28;20470;-78
2022/03/25 06:14:21;;;;;;;16.70;11.83;;;8.40;53.50;;;-142.21;80.62;112049.66;4956840;28;20488;-77
2022/03/25 06:16:50;;;;;;;16.17;11.73;;;8.60;53.20;;;-142.21;82.21;112049.66;4956536;29;20820;-78
2022/03/25 06:19:19;;;;;;;22.00;12.87;;;8.60;53.60;;;-142.21;80.43;112049.66;4942310;29;20877;-77
2022/03/25 06:21:46;;;;;;;19.80;12.37;;;8.80;53.30;;;-142.21;79.04;112049.66;4955704;28;20906;-78
2022/03/25 06:24:13;;;;;;;18.77;12.13;;;8.90;52.90;;;-142.21;79.39;112049.66;4956451;28;20567;-76
2022/03/25 06:26:41;;;;;;;16.83;12.37;;;9.10;52.70;;;-142.21;78.63;112049.66;4955500;29;20539;-80
2022/03/25 06:29:09;;;;;;;16.83;12.70;;;9.10;52.70;;;-142.21;78.50;112049.66;4937175;29;20515;-77
2022/03/25 06:31:36;;;;;;;17.93;12.37;;;9.20;53.50;;;-142.21;77.86;112049.66;4941652;29;20532;-79
2022/03/25 06:34:04;;;;;;;18.00;11.40;;;9.30;53.10;;;-142.21;78.38;112049.66;4956130;29;20555;-78
2022/03/25 06:36:33;;;;;;;17.30;11.73;;;9.50;53.20;;;-142.21;78.22;112049.66;4956281;28;20452;-78
2022/03/25 06:39:00;;;;;;;19.93;12.53;;;9.80;52.60;;;-142.21;77.93;112049.66;4954756;28;20484;-78
2022/03/25 06:41:27;;;;;;;17.00;11.57;;;10.20;51.60;;;-142.21;76.90;112049.66;4955782;28;20488;-78
2022/03/25 06:43:54;;;;;;;17.70;11.93;;;10.50;51.40;;;-142.21;77.07;112049.66;4955559;29;21016;-78
2022/03/25 06:46:22;;;;;;;17.43;12.00;;;10.90;50.80;;;-142.21;77.27;112049.66;4956052;28;20481;-79
2022/03/25 06:48:52;;;;;;;17.70;12.57;;;11.20;50.40;;;-142.21;76.97;112049.66;4955093;28;20484;-78
2022/03/25 06:51:20;;;;;;;19.03;12.80;;;11.70;49.90;;;-142.21;77.75;112049.66;4956061;28;20484;-78
2022/03/25 06:53:49;;;;;;;17.77;12.73;;;11.90;49.50;;;-142.21;76.87;112049.66;4955793;28;20548;-79
2022/03/25 06:56:19;;;;;;;19.03;13.90;;;12.00;49.80;;;-142.21;78.70;112049.66;4955118;29;20506;-78
2022/03/25 06:58:46;;;;;;;17.27;13.00;;;12.20;50.40;;;-142.21;80.10;112049.66;4939957;28;20605;-77
2022/03/25 07:01:16;;;;;;;18.33;13.53;;;12.50;50.10;;;-142.21;80.03;112049.66;4935999;29;20499;-78
2022/03/25 07:03:44;;;;;;;17.57;12.80;;;12.80;49.40;;;-142.21;79.99;112049.66;4936680;29;20470;-78
2022/03/25 07:06:12;;;;;;;20.53;14.67;;;13.10;48.50;;;-142.21;78.77;112049.66;4935796;29;20478;-79
2022/03/25 07:08:40;;;;;;;16.17;12.50;;;13.20;48.40;;;-142.21;79.21;112049.66;4950600;29;20545;-79
2022/03/25 07:11:10;;;;;;;18.40;13.53;;;13.60;48.60;;;-142.21;81.39;112049.66;4954816;28;20454;-79
2022/03/25 07:13:38;;;;;;;20.87;13.43;;;14.10;48.50;;;-142.21;79.07;112049.66;4955532;28;20551;-79
2022/03/25 07:16:06;;;;;;;18.13;14.27;;;14.50;47.50;;;-142.21;80.30;112049.66;4955131;29;20536;-79
2022/03/25 07:18:34;;;;;;;20.03;15.13;;;14.60;47.00;;;-142.21;78.24;112049.66;4950919;28;20488;-78
2022/03/25 07:21:02;;;;;;;19.90;14.83;;;14.90;46.20;;;-142.21;79.15;112049.66;4955126;28;20572;-79
2022/03/25 07:23:31;;;;;;;19.57;14.13;;;15.40;45.80;;;-142.21;74.50;112049.66;4954604;28;20481;-77
2022/03/25 07:25:59;;;;;;;19.77;14.43;;;15.90;44.40;;;-142.21;73.50;112049.66;4938418;29;20461;-79
2022/03/25 07:28:28;;;;;;;19.53;13.80;;;16.30;43.40;;;-142.21;73.83;112049.66;4954763;28;20465;-78
2022/03/25 07:30:55;;;;;;;22.73;15.63;;;16.90;43.00;;;-142.21;75.57;112049.66;4935767;29;20537;-78
2022/03/25 07:33:22;;;;;;;19.77;13.87;;;16.80;42.50;;;-142.21;75.20;112049.66;4935379;29;20519;-79
2022/03/25 07:35:49;;;;;;;19.33;14.23;;;16.00;42.30;;;-142.21;73.10;112049.66;4935634;29;20481;-78
2022/03/25 07:38:17;;;;;;;19.70;14.13;;;15.40;42.70;;;-142.21;70.71;112049.66;4946316;29;20461;-77
2022/03/25 07:40:44;;;;;;;21.00;14.27;;;14.80;43.10;;;-142.21;71.26;112049.66;4954753;28;20480;-78
2022/03/25 07:43:12;;;;;;;21.43;14.00;;;14.50;44.00;;;-142.21;69.08;112049.66;4954621;28;20453;-78
2022/03/25 07:45:41;;;;;;;20.40;13.67;;;15.00;43.80;;;-142.21;67.85;112049.66;4954385;28;20496;-79
2022/03/25 07:48:08;;;;;;;21.07;14.80;;;15.50;43.10;;;-142.21;68.28;112049.66;4954301;28;20532;-78
2022/03/25 07:50:36;;;;;;;19.33;14.70;;;15.60;43.30;;;-142.21;71.50;112049.66;4954526;28;20469;-77
2022/03/25 07:53:04;;;;;;;19.13;14.47;;;15.90;43.70;;;-142.21;70.78;112049.66;4954272;28;20449;-76
2022/03/25 07:55:31;;;;;;;21.00;14.80;;;15.60;43.20;;;-142.21;68.97;112049.66;4954363;29;20957;-78
2022/03/25 07:57:59;;;;;;;20.63;15.33;;;15.30;43.20;;;-142.21;73.31;112049.66;4954542;28;20880;-79
2022/03/25 08:00:26;;;;;;;24.20;15.90;;;15.10;44.40;;;-142.21;67.83;112049.66;4953869;28;20548;-78
2022/03/25 08:02:55;;;;;;;27.30;17.07;;;14.90;43.20;;;-142.21;70.40;112049.66;4953913;28;20496;-78
2022/03/25 08:05:24;;;;;;;25.73;17.60;;;14.90;44.10;;;-142.21;65.88;112049.66;4954165;28;20540;-81
2022/03/25 08:07:54;;;;;;;28.13;17.17;;;14.80;43.50;;;-142.21;65.21;112049.66;4953510;28;20456;-79
2022/03/25 08:10:24;;;;;;;27.43;17.37;;;14.70;44.20;;;-142.21;61.92;112049.66;4954121;29;20972;-79
2022/03/25 08:12:53;;;;;;;30.03;18.17;;;14.70;43.80;;;-142.21;62.11;112049.66;4953449;28;20491;-76
2022/03/25 08:15:22;;;;;;;26.97;17.40;;;14.60;44.20;;;-142.21;60.10;112049.66;4953748;28;20456;-76
2022/03/25 08:17:52;;;;;;;28.27;18.50;;;14.60;43.50;;;-142.21;61.66;112049.66;4953280;28;20503;-75
2022/03/25 08:20:27;;;;;;;28.40;18.83;;;14.70;44.40;;;-142.21;60.30;112049.66;4954113;29;20441;-75
2022/03/25 08:22:56;;;;;;;28.87;18.10;;;14.90;44.60;;;-142.21;60.12;112049.66;4953143;28;20546;-79
2022/03/25 08:28:09;;;;;;;24.13;17.37;;;15.50;43.30;;;-142.21;57.54;112049.66;4946498;29;20914;-75
2022/03/25 08:30:36;;;;;;;27.07;18.53;;;15.80;42.90;;;-142.21;57.02;112049.66;4957635;28;20967;-78
2022/03/25 08:33:06;;;;;;;29.70;19.70;;;16.00;42.90;;;-142.21;57.50;112049.66;4956072;28;20799;-79
2022/03/25 08:35:36;;;;;;;31.43;18.40;;;16.00;42.40;;;-142.21;56.96;112049.66;4956472;29;20484;-79
2022/03/25 08:38:05;;;;;;;33.50;18.70;;;16.00;42.50;;;-142.21;55.78;112049.66;4954042;28;20499;-78
2022/03/25 08:40:34;;;;;;;26.37;18.67;;;16.10;42.40;;;-142.21;54.97;112049.66;4954172;28;20457;-80
2022/03/25 08:43:04;;;;;;;27.53;18.53;;;16.10;41.60;;;-142.21;54.49;112049.66;4953316;28;20561;-78
2022/03/25 08:45:33;;;;;;;29.83;19.03;;;16.40;42.40;;;-142.21;53.41;112049.66;4954681;28;20445;-78
2022/03/25 08:48:01;;;;;;;26.17;17.87;;;17.20;41.90;;;-142.21;53.36;112049.66;4936769;29;20575;-77
2022/03/25 08:50:28;;;;;;;26.83;19.80;;;17.80;41.20;;;-142.21;52.99;112049.66;4945188;29;20862;-78
2022/03/25 08:52:57;;;;;;;29.47;19.70;;;17.80;40.20;;;-142.21;52.32;112049.66;4954002;28;20997;-77
2022/03/25 08:55:24;;;;;;;27.30;18.60;;;17.70;39.80;;;-142.21;52.78;112049.66;4953820;28;20468;-77
2022/03/25 08:57:51;;;;;;;27.73;19.40;;;17.60;40.00;;;-142.21;51.66;112049.66;4961649;28;20449;-76
2022/03/25 09:00:20;;;;;;;27.87;18.73;;;17.80;40.50;;;-142.21;50.58;112049.66;4955148;28;20508;-77
2022/03/25 09:02:48;;;;;;;27.80;19.77;;;18.20;40.90;;;-142.21;49.78;112049.66;4903047;29;20233;-76
2022/03/25 09:05:16;;;;;;;25.80;18.93;;;19.30;39.80;;;-142.21;49.56;112049.66;4949606;29;20211;-76
2022/03/25 09:07:45;;;;;;;27.20;20.63;;;21.00;38.60;;;-142.21;48.02;112049.66;4953312;28;20222;-79
2022/03/25 09:10:16;;;;;;;30.07;20.47;;;22.60;36.30;;;-142.21;46.32;112049.66;4953759;28;20241;-77
2022/03/25 09:12:45;;;;;;;25.77;20.63;;;23.70;33.50;;;-142.21;45.68;112049.66;4956764;28;20635;-78
2022/03/25 09:15:15;;;;;;;27.90;20.77;;;24.90;33.50;;;-142.21;45.40;112049.66;4957217;28;20204;-80
2022/03/25 09:17:44;;;;;;;28.47;20.47;;;26.20;32.50;;;-142.21;45.09;112049.66;4956741;28;20600;-80
2022/03/25 09:20:13;;;;;;;24.10;20.00;;;27.20;31.90;;;-142.21;45.59;112049.66;4956603;28;20700;-79
2022/03/25 09:22:40;;;;;;;25.33;20.47;;;28.10;30.00;;;-142.21;44.06;112049.66;4956151;28;20276;-79
2022/03/25 09:25:09;;;;;;;24.60;20.03;;;28.70;28.10;;;-142.21;44.75;112049.66;4956835;29;20698;-78
2022/03/25 09:27:40;;;;;;;27.93;19.57;;;29.30;28.90;;;-142.21;42.95;112049.66;4956232;28;20210;-80
2022/03/25 09:30:10;;;;;;;24.60;21.07;;;30.10;27.90;;;-142.21;42.30;112049.66;4947736;28;20215;-83
2022/03/25 09:32:37;;;;;;;27.23;20.90;;;30.50;27.20;;;-142.21;41.26;112049.66;4937361;29;20264;-78
2022/03/25 09:35:13;;;;;;;25.57;21.10;;;31.00;26.70;;;-142.21;41.12;112049.66;4939214;29;20312;-83
2022/03/25 09:37:43;;;;;;;24.03;19.83;;;31.20;25.60;;;-142.21;39.81;112049.66;4957328;29;20233;-85
2022/03/25 09:40:14;;;;;;;24.23;21.23;;;31.50;25.50;;;-142.21;41.04;112049.66;4958390;29;20220;-86
2022/03/25 09:42:43;;;;;;;25.50;21.80;;;31.70;25.40;;;-142.21;39.50;112049.66;4955952;28;20318;-80
2022/03/25 09:45:13;;;;;;;25.33;20.73;;;31.90;24.70;;;-142.21;39.48;112049.66;4955510;28;20242;-83
2022/03/25 09:47:41;;;;;;;24.57;19.17;;;32.20;24.30;;;-142.21;38.41;112049.66;4941160;29;20225;-80
2022/03/25 09:50:13;;;;;;;27.10;20.50;;;32.20;24.00;;;-142.21;38.26;112049.66;4943254;28;20262;-79
2022/03/25 09:52:42;;;;;;;23.50;20.70;;;32.40;24.10;;;-142.21;37.07;112049.66;4954272;29;20213;-80
2022/03/25 09:55:11;;;;;;;23.97;20.97;;;32.40;24.10;;;-142.21;37.28;112049.66;4955272;28;20554;-81
2022/03/25 09:57:39;;;;;;;25.90;21.60;;;32.30;23.80;;;-142.21;37.35;112049.66;4955571;28;20263;-82